Portada
METAR-TAF:

METAR-TAF

Aeroports :

Aeroport Internacional de Tan Son Nhat

Ciutat Ho Chi Minh, Vietnam

latitud: 10-49N, longitud: 106-40E, altitud: 19 m

Observació

L'informe es va fer fa 22 minuts, a les 06:00 UTC
Vent 5 kt del Sud-Est, variant entre Est/Nord-Est i Sud-Oest
Temperatura 34°C
Humitat 50%
Pressió 1009 hPa
Visibilitat 10 km o més
Cel ennuvolat a una alçada de 1700 ft

METAR: VVTS 140600Z 14005KT 070V220 9999 BKN017 34/22 Q1009 NOSIG

Hora: 13:22 (06:22 UTC)

Pronòstic

L'informe es va fer fa 1 hora i 22 minuts, a les 05:00 UTC
Pronòstic vàlid del 14 a les 06 UTC al 15 a les 12 UTC
Vent 5 kt del Est/Nord-Est
Visibilitat 10 km o més
Núvols disperses a una alçada de 1700 ft
Temporalment
l' 14 a les 09 UTC al 14 a les 14 UTC
Visibilitat: 5000 m
Cel ennuvolat a una alçada de 1300 ft
Escasses núvols a una alçada de 1500 ft, Cumulonimbus.
Cel ennuvolat a una alçada de 4000 ft
tempesta, pluja

TAF: VVTS 140500Z 1406/1512 06005KT 9999 SCT017 TEMPO 1409/1414 5000 TSRA BKN013 FEW015CB BKN040

Observacions i pronòstics meteorològics de més de 4000 aeroports (METAR i TAF).

Les estacions disponibles són els punts grocs i vermells al mapa.

Posi el ratolí al punt desitjat per veure el nom de l'estació.

Feu clic per veure les observacions i els pronòstics meteorològics.

Per canviar el mapa: feu clic els botons verds amb una creu de color negre per apropar; al botó verd amb un guió per allunyar la imatge; o en les fletxes verdes per a mapes adjacents.


METAR-TAF: